METAR ET TAF INFORMATION
METAR FOR LFRS
ADDS - METARS form results

(1751 UTC 17 June 2019)
Data provider http://aviationweather.gov/metar/data/
 
METAR text: LFRS 171730Z AUTO 03006KT 350V070 CAVOK 27/12 Q1014 NOSIG
Conditions at: LFRS (NANTES/CHATEAU B, FR) observed 1730 UTC 17 June 2019
Temperature: 27.0°C (81°F)
Dewpoint: 12.0°C (54°F) [RH = 39%]
Pressure (altimeter): 29.94 inches Hg (1014.0 mb)
Winds: from the NNE (30 degrees) at 7 MPH (6 knots; 3.1 m/s)
Visibility: 6 or more miles (10+ km)
Ceiling: ceiling and visibility are OK
Clouds: unknown
Weather: no significant weather observed at this time

METAR text: LFRS 171700Z AUTO VRB03KT CAVOK 27/13 Q1014 NOSIG
Conditions at: LFRS (NANTES/CHATEAU B, FR) observed 1700 UTC 17 June 2019
Temperature: 27.0°C (81°F)
Dewpoint: 13.0°C (55°F) [RH = 42%]
Pressure (altimeter): 29.94 inches Hg (1014.0 mb)
Winds: variable direction winds at 3 MPH (3 knots; 1.5 m/s)
Visibility: 6 or more miles (10+ km)
Ceiling: ceiling and visibility are OK
Clouds: unknown
Weather: no significant weather observed at this time

Forecast for: LFRS (NANTES/CHATEAU B, FR)
Text: TAF LFRS 171700Z 1718/1824 VRB05KT CAVOK
Forecast period: 1800 UTC 17 June 2019 to 1300 UTC 18 June 2019
Forecast type: FROM: standard forecast or significant change
Winds: variable direction winds at 6 MPH (5 knots; 2.6 m/s)
Visibility: 6 or more miles 10+ km)
Ceiling: unknown
Clouds: missing
Weather: NSW  (no significant weather)
Text: PROB30
Forecast period: 0400 to 0700 UTC 18 June 2019
Forecast type: TEMPORARY: The following changes expected for less than half the time period
Visibility: missing
Ceiling: at least 12,000 feet AGL
Clouds: scattered clouds at 5000 feet AGL
Weather: SHRA  (rain showers)
Text: TEMPO 1804/1807 SHRA SCT050TCU
Forecast period: 1300 UTC 18 June 2019 to 0000 UTC 19 June 2019
Forecast type: BECOMING: Conditions expected to become as follows by 1600 UTC 18 June 2019
Winds: from the WSW (240 degrees) at 12 MPH (10 knots; 5.1 m/s)
Visibility: 6 or more miles 10+ km)
Ceiling: unknown
Clouds: missing
Weather: NSW  (no significant weather)

 AÉROPORT DE AÉROPORT

 INFORMATIONS DE PISTE
Piste 03 Longueur de la piste 9514 ft Largeur de la piste 148 ft
Élévation de la piste 73 ft Seuil de la piste déplacés 0 ft Runway heading 28
Piste 21 Longueur de la piste 9514 ft Largeur de la piste 148 ft
Élévation de la piste 86 ft Seuil de la piste déplacés 694 ft Runway heading 208

 AÉROPORT FRÉQUENCES
Type APP Nom APP Féquence 130.275 MHZ
Type ATIS Nom ATIS Féquence 126.925 MHZ
Type GND Nom GND Féquence 121.875 MHZ
Type INFO Nom INFO Féquence 129.875 MHZ
Type TWR Nom TWR Féquence 118.65 MHZ

 SIDA DE NAVIGATION
Type NDB Nom Nantes Féquence 369 KHZ
Type VOR-DME Nom Nantes Féquence 115500 KHZ



Powered by Virtual Airlines Manager [v2.6.2]